sensor_id;sensor_type;location;lat;lon;timestamp;P1;durP1;ratioP1;P2;durP2;ratioP2
23866;SDS011;12114;53.404;-1.502;2023-08-12T00:01:18;16.80;;;3.08;;
23866;SDS011;12114;53.404;-1.502;2023-08-12T00:04:04;14.45;;;3.00;;
23866;SDS011;12114;53.404;-1.502;2023-08-12T00:06:48;16.15;;;3.50;;
23866;SDS011;12114;53.404;-1.502;2023-08-12T00:09:32;21.38;;;3.58;;
23866;SDS011;12114;53.404;-1.502;2023-08-12T00:12:16;13.75;;;3.55;;
23866;SDS011;12114;53.404;-1.502;2023-08-12T00:15:01;19.70;;;3.42;;
23866;SDS011;12114;53.404;-1.502;2023-08-12T00:17:45;16.00;;;3.53;;
23866;SDS011;12114;53.404;-1.502;2023-08-12T00:20:28;15.57;;;3.50;;
23866;SDS011;12114;53.404;-1.502;2023-08-12T00:23:13;18.25;;;3.85;;
23866;SDS011;12114;53.404;-1.502;2023-08-12T00:26:00;18.02;;;3.47;;
23866;SDS011;12114;53.404;-1.502;2023-08-12T00:28:44;18.17;;;3.92;;
23866;SDS011;12114;53.404;-1.502;2023-08-12T00:31:28;20.48;;;3.45;;
23866;SDS011;12114;53.404;-1.502;2023-08-12T00:34:12;25.48;;;4.38;;
23866;SDS011;12114;53.404;-1.502;2023-08-12T00:36:56;17.55;;;3.72;;
23866;SDS011;12114;53.404;-1.502;2023-08-12T00:39:40;16.92;;;3.45;;
23866;SDS011;12114;53.404;-1.502;2023-08-12T00:42:23;17.73;;;3.42;;
23866;SDS011;12114;53.404;-1.502;2023-08-12T00:45:09;13.82;;;3.35;;
23866;SDS011;12114;53.404;-1.502;2023-08-12T00:47:53;16.48;;;3.80;;
23866;SDS011;12114;53.404;-1.502;2023-08-12T00:50:37;15.52;;;3.65;;
23866;SDS011;12114;53.404;-1.502;2023-08-12T00:53:22;17.95;;;3.20;;
23866;SDS011;12114;53.404;-1.502;2023-08-12T00:56:06;19.48;;;3.55;;
23866;SDS011;12114;53.404;-1.502;2023-08-12T00:58:51;15.35;;;3.50;;
23866;SDS011;12114;53.404;-1.502;2023-08-12T01:01:35;14.77;;;3.28;;
23866;SDS011;12114;53.404;-1.502;2023-08-12T01:04:21;10.90;;;3.33;;
23866;SDS011;12114;53.404;-1.502;2023-08-12T01:07:05;21.02;;;4.13;;
23866;SDS011;12114;53.404;-1.502;2023-08-12T01:09:50;20.25;;;4.30;;
23866;SDS011;12114;53.404;-1.502;2023-08-12T01:12:36;15.50;;;3.13;;
23866;SDS011;12114;53.404;-1.502;2023-08-12T01:15:21;16.95;;;3.58;;
23866;SDS011;12114;53.404;-1.502;2023-08-12T01:18:05;21.20;;;3.95;;
23866;SDS011;12114;53.404;-1.502;2023-08-12T01:20:50;20.90;;;3.67;;
23866;SDS011;12114;53.404;-1.502;2023-08-12T01:23:34;17.20;;;3.80;;
23866;SDS011;12114;53.404;-1.502;2023-08-12T01:26:18;10.43;;;3.03;;
23866;SDS011;12114;53.404;-1.502;2023-08-12T01:29:02;20.52;;;4.00;;
23866;SDS011;12114;53.404;-1.502;2023-08-12T01:31:51;17.93;;;3.00;;
23866;SDS011;12114;53.404;-1.502;2023-08-12T01:37:28;18.90;;;3.53;;
23866;SDS011;12114;53.404;-1.502;2023-08-12T01:40:12;17.45;;;3.30;;
23866;SDS011;12114;53.404;-1.502;2023-08-12T01:42:57;18.60;;;4.00;;
23866;SDS011;12114;53.404;-1.502;2023-08-12T01:45:42;14.13;;;3.08;;
23866;SDS011;12114;53.404;-1.502;2023-08-12T01:48:27;18.95;;;3.40;;
23866;SDS011;12114;53.404;-1.502;2023-08-12T01:51:11;19.08;;;3.75;;
23866;SDS011;12114;53.404;-1.502;2023-08-12T01:53:55;22.88;;;3.60;;
23866;SDS011;12114;53.404;-1.502;2023-08-12T01:56:39;14.60;;;3.42;;
23866;SDS011;12114;53.404;-1.502;2023-08-12T01:59:23;12.40;;;3.05;;
23866;SDS011;12114;53.404;-1.502;2023-08-12T02:02:07;20.83;;;3.78;;
23866;SDS011;12114;53.404;-1.502;2023-08-12T02:04:51;17.35;;;3.35;;
23866;SDS011;12114;53.404;-1.502;2023-08-12T02:07:35;18.75;;;3.63;;
23866;SDS011;12114;53.404;-1.502;2023-08-12T02:10:19;12.93;;;3.30;;
23866;SDS011;12114;53.404;-1.502;2023-08-12T02:13:03;20.15;;;3.40;;
23866;SDS011;12114;53.404;-1.502;2023-08-12T02:15:47;20.60;;;3.47;;
23866;SDS011;12114;53.404;-1.502;2023-08-12T02:18:31;18.15;;;3.42;;
23866;SDS011;12114;53.404;-1.502;2023-08-12T02:21:15;18.63;;;3.47;;
23866;SDS011;12114;53.404;-1.502;2023-08-12T02:23:59;20.30;;;4.00;;
23866;SDS011;12114;53.404;-1.502;2023-08-12T02:26:44;13.80;;;3.38;;
23866;SDS011;12114;53.404;-1.502;2023-08-12T02:29:27;16.30;;;3.35;;
23866;SDS011;12114;53.404;-1.502;2023-08-12T02:32:11;17.02;;;3.60;;
23866;SDS011;12114;53.404;-1.502;2023-08-12T02:34:55;23.35;;;4.30;;
23866;SDS011;12114;53.404;-1.502;2023-08-12T02:37:39;22.15;;;4.00;;
23866;SDS011;12114;53.404;-1.502;2023-08-12T02:40:23;19.23;;;4.13;;
23866;SDS011;12114;53.404;-1.502;2023-08-12T02:43:07;17.98;;;3.58;;
23866;SDS011;12114;53.404;-1.502;2023-08-12T02:45:54;17.50;;;4.45;;
23866;SDS011;12114;53.404;-1.502;2023-08-12T02:48:38;23.67;;;4.43;;
23866;SDS011;12114;53.404;-1.502;2023-08-12T02:51:21;17.27;;;3.63;;
23866;SDS011;12114;53.404;-1.502;2023-08-12T02:54:05;21.60;;;4.95;;
23866;SDS011;12114;53.404;-1.502;2023-08-12T02:56:50;25.33;;;4.25;;
23866;SDS011;12114;53.404;-1.502;2023-08-12T02:59:33;22.55;;;4.85;;
23866;SDS011;12114;53.404;-1.502;2023-08-12T03:02:17;19.48;;;4.75;;
23866;SDS011;12114;53.404;-1.502;2023-08-12T03:05:01;21.67;;;5.32;;
23866;SDS011;12114;53.404;-1.502;2023-08-12T03:07:46;16.65;;;4.80;;
23866;SDS011;12114;53.404;-1.502;2023-08-12T03:10:30;22.17;;;5.45;;
23866;SDS011;12114;53.404;-1.502;2023-08-12T03:13:14;18.73;;;5.03;;
23866;SDS011;12114;53.404;-1.502;2023-08-12T03:15:58;20.23;;;5.53;;
23866;SDS011;12114;53.404;-1.502;2023-08-12T03:18:42;20.83;;;5.50;;
23866;SDS011;12114;53.404;-1.502;2023-08-12T03:21:26;24.67;;;5.93;;
23866;SDS011;12114;53.404;-1.502;2023-08-12T03:24:10;21.15;;;6.25;;
23866;SDS011;12114;53.404;-1.502;2023-08-12T03:26:54;18.23;;;5.85;;
23866;SDS011;12114;53.404;-1.502;2023-08-12T03:29:38;17.90;;;6.53;;
23866;SDS011;12114;53.404;-1.502;2023-08-12T03:32:22;23.48;;;6.40;;
23866;SDS011;12114;53.404;-1.502;2023-08-12T03:35:06;21.02;;;5.82;;
23866;SDS011;12114;53.404;-1.502;2023-08-12T03:37:50;22.00;;;5.88;;
23866;SDS011;12114;53.404;-1.502;2023-08-12T03:40:37;22.58;;;6.18;;
23866;SDS011;12114;53.404;-1.502;2023-08-12T03:43:21;17.02;;;5.65;;
23866;SDS011;12114;53.404;-1.502;2023-08-12T03:46:05;22.35;;;6.05;;
23866;SDS011;12114;53.404;-1.502;2023-08-12T03:48:49;22.23;;;5.80;;
23866;SDS011;12114;53.404;-1.502;2023-08-12T03:51:33;19.40;;;5.82;;
23866;SDS011;12114;53.404;-1.502;2023-08-12T03:54:18;21.33;;;5.85;;
23866;SDS011;12114;53.404;-1.502;2023-08-12T03:57:02;19.42;;;5.57;;
23866;SDS011;12114;53.404;-1.502;2023-08-12T03:59:46;23.17;;;5.97;;
23866;SDS011;12114;53.404;-1.502;2023-08-12T04:02:29;20.27;;;6.32;;
23866;SDS011;12114;53.404;-1.502;2023-08-12T04:05:13;23.05;;;5.90;;
23866;SDS011;12114;53.404;-1.502;2023-08-12T04:07:57;22.10;;;5.93;;
23866;SDS011;12114;53.404;-1.502;2023-08-12T04:10:44;18.85;;;5.40;;
23866;SDS011;12114;53.404;-1.502;2023-08-12T04:13:27;22.92;;;5.82;;
23866;SDS011;12114;53.404;-1.502;2023-08-12T04:16:12;18.13;;;5.43;;
23866;SDS011;12114;53.404;-1.502;2023-08-12T04:18:56;20.15;;;5.80;;
23866;SDS011;12114;53.404;-1.502;2023-08-12T04:21:40;28.05;;;6.40;;
23866;SDS011;12114;53.404;-1.502;2023-08-12T04:24:24;21.38;;;5.13;;
23866;SDS011;12114;53.404;-1.502;2023-08-12T04:27:08;21.15;;;5.80;;
23866;SDS011;12114;53.404;-1.502;2023-08-12T04:29:52;19.00;;;6.15;;
23866;SDS011;12114;53.404;-1.502;2023-08-12T04:32:35;18.75;;;5.70;;
23866;SDS011;12114;53.404;-1.502;2023-08-12T04:35:19;19.88;;;5.60;;
23866;SDS011;12114;53.404;-1.502;2023-08-12T04:38:03;26.38;;;5.72;;
23866;SDS011;12114;53.404;-1.502;2023-08-12T04:40:48;19.17;;;5.38;;
23866;SDS011;12114;53.404;-1.502;2023-08-12T04:43:32;19.70;;;5.68;;
23866;SDS011;12114;53.404;-1.502;2023-08-12T04:46:16;20.55;;;5.78;;
23866;SDS011;12114;53.404;-1.502;2023-08-12T04:49:00;18.48;;;5.75;;
23866;SDS011;12114;53.404;-1.502;2023-08-12T04:51:44;19.63;;;5.20;;
23866;SDS011;12114;53.404;-1.502;2023-08-12T04:54:28;23.73;;;5.47;;
23866;SDS011;12114;53.404;-1.502;2023-08-12T04:57:12;19.25;;;4.85;;
23866;SDS011;12114;53.404;-1.502;2023-08-12T04:59:56;23.90;;;5.40;;
23866;SDS011;12114;53.404;-1.502;2023-08-12T05:02:40;18.10;;;5.38;;
23866;SDS011;12114;53.404;-1.502;2023-08-12T05:05:25;18.88;;;5.20;;
23866;SDS011;12114;53.404;-1.502;2023-08-12T05:08:09;15.60;;;4.50;;
23866;SDS011;12114;53.404;-1.502;2023-08-12T05:10:53;23.05;;;5.80;;
23866;SDS011;12114;53.404;-1.502;2023-08-12T05:13:38;19.02;;;4.63;;
23866;SDS011;12114;53.404;-1.502;2023-08-12T05:16:22;19.77;;;4.82;;
23866;SDS011;12114;53.404;-1.502;2023-08-12T05:19:06;20.23;;;4.93;;
23866;SDS011;12114;53.404;-1.502;2023-08-12T05:21:49;21.25;;;5.38;;
23866;SDS011;12114;53.404;-1.502;2023-08-12T05:24:33;21.55;;;4.88;;
23866;SDS011;12114;53.404;-1.502;2023-08-12T05:27:17;21.40;;;4.75;;
23866;SDS011;12114;53.404;-1.502;2023-08-12T05:30:01;18.70;;;4.72;;
23866;SDS011;12114;53.404;-1.502;2023-08-12T05:32:45;17.30;;;4.40;;
23866;SDS011;12114;53.404;-1.502;2023-08-12T05:35:32;20.02;;;4.65;;
23866;SDS011;12114;53.404;-1.502;2023-08-12T05:38:17;22.25;;;4.70;;
23866;SDS011;12114;53.404;-1.502;2023-08-12T05:41:01;23.85;;;4.75;;
23866;SDS011;12114;53.404;-1.502;2023-08-12T05:43:44;17.20;;;4.82;;
23866;SDS011;12114;53.404;-1.502;2023-08-12T05:46:28;16.70;;;4.45;;
23866;SDS011;12114;53.404;-1.502;2023-08-12T05:49:12;19.52;;;3.92;;
23866;SDS011;12114;53.404;-1.502;2023-08-12T05:51:56;18.35;;;4.28;;
23866;SDS011;12114;53.404;-1.502;2023-08-12T05:54:40;18.60;;;4.28;;
23866;SDS011;12114;53.404;-1.502;2023-08-12T05:57:24;16.10;;;4.18;;
23866;SDS011;12114;53.404;-1.502;2023-08-12T06:00:08;15.15;;;3.72;;
23866;SDS011;12114;53.404;-1.502;2023-08-12T06:02:52;16.05;;;3.80;;
23866;SDS011;12114;53.404;-1.502;2023-08-12T06:05:36;13.52;;;3.92;;
23866;SDS011;12114;53.404;-1.502;2023-08-12T06:08:20;18.98;;;3.97;;
23866;SDS011;12114;53.404;-1.502;2023-08-12T06:11:04;17.92;;;4.10;;
23866;SDS011;12114;53.404;-1.502;2023-08-12T06:13:48;13.60;;;3.42;;
23866;SDS011;12114;53.404;-1.502;2023-08-12T06:16:32;16.05;;;5.07;;
23866;SDS011;12114;53.404;-1.502;2023-08-12T06:19:16;14.93;;;3.25;;
23866;SDS011;12114;53.404;-1.502;2023-08-12T06:22:00;16.77;;;3.78;;
23866;SDS011;12114;53.404;-1.502;2023-08-12T06:24:44;16.55;;;3.95;;
23866;SDS011;12114;53.404;-1.502;2023-08-12T06:27:28;12.95;;;3.38;;
23866;SDS011;12114;53.404;-1.502;2023-08-12T06:30:12;16.35;;;3.45;;
23866;SDS011;12114;53.404;-1.502;2023-08-12T06:32:56;17.95;;;3.72;;
23866;SDS011;12114;53.404;-1.502;2023-08-12T06:35:41;12.85;;;3.67;;
23866;SDS011;12114;53.404;-1.502;2023-08-12T06:38:25;12.13;;;3.20;;
23866;SDS011;12114;53.404;-1.502;2023-08-12T06:41:09;12.77;;;3.75;;
23866;SDS011;12114;53.404;-1.502;2023-08-12T06:43:53;18.70;;;3.80;;
23866;SDS011;12114;53.404;-1.502;2023-08-12T06:46:37;16.60;;;3.88;;
23866;SDS011;12114;53.404;-1.502;2023-08-12T06:49:21;16.65;;;3.55;;
23866;SDS011;12114;53.404;-1.502;2023-08-12T06:52:05;14.75;;;3.58;;
23866;SDS011;12114;53.404;-1.502;2023-08-12T06:54:49;19.40;;;3.50;;
23866;SDS011;12114;53.404;-1.502;2023-08-12T06:57:33;16.58;;;3.67;;
23866;SDS011;12114;53.404;-1.502;2023-08-12T07:00:17;17.02;;;3.60;;
23866;SDS011;12114;53.404;-1.502;2023-08-12T07:03:01;13.68;;;3.00;;
23866;SDS011;12114;53.404;-1.502;2023-08-12T07:05:45;13.60;;;3.00;;
23866;SDS011;12114;53.404;-1.502;2023-08-12T07:08:29;10.98;;;2.67;;
23866;SDS011;12114;53.404;-1.502;2023-08-12T07:11:12;14.90;;;2.83;;
23866;SDS011;12114;53.404;-1.502;2023-08-12T07:13:56;10.63;;;2.65;;
23866;SDS011;12114;53.404;-1.502;2023-08-12T07:16:40;12.45;;;2.33;;
23866;SDS011;12114;53.404;-1.502;2023-08-12T07:19:24;10.70;;;2.17;;
23866;SDS011;12114;53.404;-1.502;2023-08-12T07:22:08;7.65;;;2.13;;
23866;SDS011;12114;53.404;-1.502;2023-08-12T07:24:52;6.03;;;1.70;;
23866;SDS011;12114;53.404;-1.502;2023-08-12T07:27:36;9.65;;;2.45;;
23866;SDS011;12114;53.404;-1.502;2023-08-12T07:30:20;12.93;;;1.80;;
23866;SDS011;12114;53.404;-1.502;2023-08-12T07:33:04;9.60;;;2.22;;
23866;SDS011;12114;53.404;-1.502;2023-08-12T07:35:49;8.18;;;1.90;;
23866;SDS011;12114;53.404;-1.502;2023-08-12T07:38:33;5.75;;;1.58;;
23866;SDS011;12114;53.404;-1.502;2023-08-12T07:41:16;6.90;;;1.63;;
23866;SDS011;12114;53.404;-1.502;2023-08-12T07:44:00;6.40;;;1.88;;
23866;SDS011;12114;53.404;-1.502;2023-08-12T07:46:44;8.82;;;1.60;;
23866;SDS011;12114;53.404;-1.502;2023-08-12T07:49:28;10.07;;;2.35;;
23866;SDS011;12114;53.404;-1.502;2023-08-12T07:52:12;7.43;;;2.20;;
23866;SDS011;12114;53.404;-1.502;2023-08-12T07:54:56;6.60;;;2.00;;
23866;SDS011;12114;53.404;-1.502;2023-08-12T07:57:41;12.73;;;2.15;;
23866;SDS011;12114;53.404;-1.502;2023-08-12T08:00:24;8.50;;;2.20;;
23866;SDS011;12114;53.404;-1.502;2023-08-12T08:03:08;6.68;;;2.28;;
23866;SDS011;12114;53.404;-1.502;2023-08-12T08:05:52;10.38;;;2.50;;
23866;SDS011;12114;53.404;-1.502;2023-08-12T08:08:36;6.68;;;2.20;;
23866;SDS011;12114;53.404;-1.502;2023-08-12T08:11:20;6.18;;;2.30;;
23866;SDS011;12114;53.404;-1.502;2023-08-12T08:14:04;6.88;;;2.13;;
23866;SDS011;12114;53.404;-1.502;2023-08-12T08:16:48;4.28;;;1.95;;
23866;SDS011;12114;53.404;-1.502;2023-08-12T08:19:32;5.32;;;1.65;;
23866;SDS011;12114;53.404;-1.502;2023-08-12T08:22:16;4.97;;;1.60;;
23866;SDS011;12114;53.404;-1.502;2023-08-12T08:25:02;7.07;;;2.35;;
23866;SDS011;12114;53.404;-1.502;2023-08-12T08:27:45;6.97;;;2.00;;
23866;SDS011;12114;53.404;-1.502;2023-08-12T08:30:29;5.90;;;1.90;;
23866;SDS011;12114;53.404;-1.502;2023-08-12T08:33:13;7.15;;;2.28;;
23866;SDS011;12114;53.404;-1.502;2023-08-12T08:35:58;8.15;;;2.20;;
23866;SDS011;12114;53.404;-1.502;2023-08-12T08:38:41;6.80;;;1.98;;
23866;SDS011;12114;53.404;-1.502;2023-08-12T08:41:25;7.43;;;2.20;;
23866;SDS011;12114;53.404;-1.502;2023-08-12T08:44:12;9.05;;;2.60;;
23866;SDS011;12114;53.404;-1.502;2023-08-12T08:46:57;12.30;;;2.30;;
23866;SDS011;12114;53.404;-1.502;2023-08-12T08:49:42;12.13;;;2.57;;
23866;SDS011;12114;53.404;-1.502;2023-08-12T08:52:26;15.35;;;2.63;;
23866;SDS011;12114;53.404;-1.502;2023-08-12T08:55:11;12.65;;;2.55;;
23866;SDS011;12114;53.404;-1.502;2023-08-12T08:57:56;10.68;;;2.35;;
23866;SDS011;12114;53.404;-1.502;2023-08-12T09:00:40;10.80;;;2.42;;
23866;SDS011;12114;53.404;-1.502;2023-08-12T09:03:25;10.48;;;2.60;;
23866;SDS011;12114;53.404;-1.502;2023-08-12T09:06:09;15.13;;;3.40;;
23866;SDS011;12114;53.404;-1.502;2023-08-12T09:08:52;14.45;;;3.10;;
23866;SDS011;12114;53.404;-1.502;2023-08-12T09:11:38;13.25;;;2.80;;
23866;SDS011;12114;53.404;-1.502;2023-08-12T09:14:22;10.83;;;2.63;;
23866;SDS011;12114;53.404;-1.502;2023-08-12T09:17:07;16.10;;;3.28;;
23866;SDS011;12114;53.404;-1.502;2023-08-12T09:19:51;12.00;;;2.88;;
23866;SDS011;12114;53.404;-1.502;2023-08-12T09:22:35;13.20;;;3.15;;
23866;SDS011;12114;53.404;-1.502;2023-08-12T09:25:19;10.00;;;2.80;;
23866;SDS011;12114;53.404;-1.502;2023-08-12T09:28:03;11.88;;;2.97;;
23866;SDS011;12114;53.404;-1.502;2023-08-12T09:30:51;13.52;;;2.88;;
23866;SDS011;12114;53.404;-1.502;2023-08-12T09:33:39;13.40;;;3.20;;
23866;SDS011;12114;53.404;-1.502;2023-08-12T09:36:23;10.20;;;2.50;;
23866;SDS011;12114;53.404;-1.502;2023-08-12T09:39:07;17.77;;;3.13;;
23866;SDS011;12114;53.404;-1.502;2023-08-12T09:41:54;11.65;;;2.70;;
23866;SDS011;12114;53.404;-1.502;2023-08-12T09:44:39;17.67;;;3.53;;
23866;SDS011;12114;53.404;-1.502;2023-08-12T09:47:24;13.45;;;2.97;;
23866;SDS011;12114;53.404;-1.502;2023-08-12T09:50:08;11.50;;;3.42;;
23866;SDS011;12114;53.404;-1.502;2023-08-12T09:52:53;10.60;;;2.35;;
23866;SDS011;12114;53.404;-1.502;2023-08-12T09:55:37;10.55;;;2.83;;
23866;SDS011;12114;53.404;-1.502;2023-08-12T09:58:22;10.10;;;2.75;;
23866;SDS011;12114;53.404;-1.502;2023-08-12T10:01:07;14.90;;;3.00;;
23866;SDS011;12114;53.404;-1.502;2023-08-12T10:03:51;14.27;;;3.03;;
23866;SDS011;12114;53.404;-1.502;2023-08-12T10:06:37;13.38;;;2.80;;
23866;SDS011;12114;53.404;-1.502;2023-08-12T10:09:21;14.00;;;3.20;;
23866;SDS011;12114;53.404;-1.502;2023-08-12T10:12:06;16.02;;;3.70;;
23866;SDS011;12114;53.404;-1.502;2023-08-12T10:14:50;10.63;;;2.95;;
23866;SDS011;12114;53.404;-1.502;2023-08-12T10:17:34;11.50;;;2.80;;
23866;SDS011;12114;53.404;-1.502;2023-08-12T10:20:23;11.75;;;2.90;;
23866;SDS011;12114;53.404;-1.502;2023-08-12T10:23:07;14.35;;;2.67;;
23866;SDS011;12114;53.404;-1.502;2023-08-12T10:25:54;13.05;;;2.40;;
23866;SDS011;12114;53.404;-1.502;2023-08-12T10:28:39;9.95;;;2.67;;
23866;SDS011;12114;53.404;-1.502;2023-08-12T10:31:24;10.88;;;2.35;;
23866;SDS011;12114;53.404;-1.502;2023-08-12T10:34:17;10.77;;;2.20;;
23866;SDS011;12114;53.404;-1.502;2023-08-12T10:37:02;9.25;;;2.40;;
23866;SDS011;12114;53.404;-1.502;2023-08-12T10:39:46;11.82;;;2.58;;
23866;SDS011;12114;53.404;-1.502;2023-08-12T10:42:39;13.65;;;2.35;;
23866;SDS011;12114;53.404;-1.502;2023-08-12T10:45:24;11.82;;;2.85;;
23866;SDS011;12114;53.404;-1.502;2023-08-12T10:48:24;15.48;;;2.95;;
23866;SDS011;12114;53.404;-1.502;2023-08-12T10:51:08;11.23;;;2.58;;
23866;SDS011;12114;53.404;-1.502;2023-08-12T10:53:52;10.70;;;2.47;;
23866;SDS011;12114;53.404;-1.502;2023-08-12T11:02:32;9.45;;;2.30;;
23866;SDS011;12114;53.404;-1.502;2023-08-12T11:05:17;9.23;;;2.53;;
23866;SDS011;12114;53.404;-1.502;2023-08-12T11:08:02;13.00;;;2.65;;
23866;SDS011;12114;53.404;-1.502;2023-08-12T11:10:49;12.90;;;2.38;;
23866;SDS011;12114;53.404;-1.502;2023-08-12T11:13:33;12.10;;;2.63;;
23866;SDS011;12114;53.404;-1.502;2023-08-12T11:16:36;13.10;;;2.70;;
23866;SDS011;12114;53.404;-1.502;2023-08-12T11:19:21;7.38;;;2.20;;
23866;SDS011;12114;53.404;-1.502;2023-08-12T11:22:05;12.18;;;2.70;;
23866;SDS011;12114;53.404;-1.502;2023-08-12T11:24:49;7.88;;;2.35;;
23866;SDS011;12114;53.404;-1.502;2023-08-12T11:27:39;11.25;;;2.05;;
23866;SDS011;12114;53.404;-1.502;2023-08-12T11:30:24;9.68;;;1.80;;
23866;SDS011;12114;53.404;-1.502;2023-08-12T11:33:08;12.00;;;2.75;;
23866;SDS011;12114;53.404;-1.502;2023-08-12T11:35:52;8.80;;;2.03;;
23866;SDS011;12114;53.404;-1.502;2023-08-12T11:38:37;9.65;;;1.77;;
23866;SDS011;12114;53.404;-1.502;2023-08-12T11:41:22;7.28;;;1.80;;
23866;SDS011;12114;53.404;-1.502;2023-08-12T11:44:06;10.27;;;1.90;;
23866;SDS011;12114;53.404;-1.502;2023-08-12T11:46:55;7.13;;;1.90;;
23866;SDS011;12114;53.404;-1.502;2023-08-12T11:49:39;8.00;;;2.17;;
23866;SDS011;12114;53.404;-1.502;2023-08-12T11:52:23;10.13;;;1.80;;
23866;SDS011;12114;53.404;-1.502;2023-08-12T11:55:07;7.57;;;1.67;;
23866;SDS011;12114;53.404;-1.502;2023-08-12T11:57:51;5.50;;;1.55;;
23866;SDS011;12114;53.404;-1.502;2023-08-12T12:00:35;6.38;;;1.20;;
23866;SDS011;12114;53.404;-1.502;2023-08-12T12:03:19;5.50;;;1.48;;
23866;SDS011;12114;53.404;-1.502;2023-08-12T12:06:03;4.15;;;1.30;;
23866;SDS011;12114;53.404;-1.502;2023-08-12T12:08:47;3.90;;;1.20;;
23866;SDS011;12114;53.404;-1.502;2023-08-12T12:11:32;6.50;;;1.27;;
23866;SDS011;12114;53.404;-1.502;2023-08-12T12:14:16;4.60;;;0.90;;
23866;SDS011;12114;53.404;-1.502;2023-08-12T12:17:00;4.03;;;1.10;;
23866;SDS011;12114;53.404;-1.502;2023-08-12T12:19:57;6.85;;;1.70;;
23866;SDS011;12114;53.404;-1.502;2023-08-12T12:22:42;7.85;;;1.77;;
23866;SDS011;12114;53.404;-1.502;2023-08-12T12:25:29;7.43;;;1.30;;
23866;SDS011;12114;53.404;-1.502;2023-08-12T12:28:13;4.88;;;1.30;;
23866;SDS011;12114;53.404;-1.502;2023-08-12T12:30:57;6.80;;;1.55;;
23866;SDS011;12114;53.404;-1.502;2023-08-12T12:33:41;3.22;;;1.15;;
23866;SDS011;12114;53.404;-1.502;2023-08-12T12:36:24;4.72;;;1.23;;
23866;SDS011;12114;53.404;-1.502;2023-08-12T12:39:09;5.88;;;1.42;;
23866;SDS011;12114;53.404;-1.502;2023-08-12T12:41:53;4.95;;;1.17;;
23866;SDS011;12114;53.404;-1.502;2023-08-12T12:44:37;4.93;;;1.23;;
23866;SDS011;12114;53.404;-1.502;2023-08-12T12:47:21;4.45;;;1.10;;
23866;SDS011;12114;53.404;-1.502;2023-08-12T12:50:05;3.85;;;1.08;;
23866;SDS011;12114;53.404;-1.502;2023-08-12T12:52:49;4.80;;;1.05;;
23866;SDS011;12114;53.404;-1.502;2023-08-12T12:55:33;6.00;;;1.10;;
23866;SDS011;12114;53.404;-1.502;2023-08-12T12:58:17;4.72;;;1.10;;
23866;SDS011;12114;53.404;-1.502;2023-08-12T13:01:01;5.13;;;0.93;;
23866;SDS011;12114;53.404;-1.502;2023-08-12T13:03:45;3.58;;;1.02;;
23866;SDS011;12114;53.404;-1.502;2023-08-12T13:06:29;4.35;;;1.20;;
23866;SDS011;12114;53.404;-1.502;2023-08-12T13:09:13;5.07;;;1.10;;
23866;SDS011;12114;53.404;-1.502;2023-08-12T13:11:57;4.00;;;1.20;;
23866;SDS011;12114;53.404;-1.502;2023-08-12T13:14:41;4.53;;;1.15;;
23866;SDS011;12114;53.404;-1.502;2023-08-12T13:17:25;5.00;;;1.08;;
23866;SDS011;12114;53.404;-1.502;2023-08-12T13:20:10;5.60;;;1.33;;
23866;SDS011;12114;53.404;-1.502;2023-08-12T13:22:54;3.55;;;1.42;;
23866;SDS011;12114;53.404;-1.502;2023-08-12T13:25:38;3.80;;;1.08;;
23866;SDS011;12114;53.404;-1.502;2023-08-12T13:28:23;4.68;;;1.15;;
23866;SDS011;12114;53.404;-1.502;2023-08-12T13:31:07;2.58;;;0.80;;
23866;SDS011;12114;53.404;-1.502;2023-08-12T13:33:52;2.83;;;1.20;;
23866;SDS011;12114;53.404;-1.502;2023-08-12T13:36:36;3.10;;;0.90;;
23866;SDS011;12114;53.404;-1.502;2023-08-12T13:39:20;4.65;;;1.02;;
23866;SDS011;12114;53.404;-1.502;2023-08-12T13:42:04;5.90;;;2.67;;
23866;SDS011;12114;53.404;-1.502;2023-08-12T13:44:48;10.75;;;4.00;;
23866;SDS011;12114;53.404;-1.502;2023-08-12T13:47:33;4.40;;;1.10;;
23866;SDS011;12114;53.404;-1.502;2023-08-12T13:50:17;4.07;;;1.17;;
23866;SDS011;12114;53.404;-1.502;2023-08-12T13:53:02;3.38;;;0.85;;
23866;SDS011;12114;53.404;-1.502;2023-08-12T13:55:46;2.20;;;0.70;;
23866;SDS011;12114;53.404;-1.502;2023-08-12T13:58:30;3.20;;;0.80;;
23866;SDS011;12114;53.404;-1.502;2023-08-12T14:01:14;2.35;;;0.70;;
23866;SDS011;12114;53.404;-1.502;2023-08-12T14:03:58;3.58;;;0.77;;
23866;SDS011;12114;53.404;-1.502;2023-08-12T14:06:42;1.33;;;0.60;;
23866;SDS011;12114;53.404;-1.502;2023-08-12T14:09:27;1.58;;;0.50;;
23866;SDS011;12114;53.404;-1.502;2023-08-12T14:12:11;2.85;;;0.60;;
23866;SDS011;12114;53.404;-1.502;2023-08-12T14:14:55;1.98;;;0.52;;
23866;SDS011;12114;53.404;-1.502;2023-08-12T14:17:39;2.35;;;0.75;;
23866;SDS011;12114;53.404;-1.502;2023-08-12T14:20:23;1.48;;;0.50;;
23866;SDS011;12114;53.404;-1.502;2023-08-12T14:23:07;1.10;;;0.50;;
23866;SDS011;12114;53.404;-1.502;2023-08-12T14:25:52;3.25;;;0.70;;
23866;SDS011;12114;53.404;-1.502;2023-08-12T14:28:36;2.70;;;0.50;;
23866;SDS011;12114;53.404;-1.502;2023-08-12T14:31:20;1.80;;;0.50;;
23866;SDS011;12114;53.404;-1.502;2023-08-12T14:34:04;2.83;;;0.47;;
23866;SDS011;12114;53.404;-1.502;2023-08-12T14:36:49;1.52;;;0.40;;
23866;SDS011;12114;53.404;-1.502;2023-08-12T14:39:33;2.20;;;0.50;;
23866;SDS011;12114;53.404;-1.502;2023-08-12T14:42:17;1.70;;;0.50;;
23866;SDS011;12114;53.404;-1.502;2023-08-12T14:45:01;2.72;;;0.50;;
23866;SDS011;12114;53.404;-1.502;2023-08-12T14:47:45;1.40;;;0.40;;
23866;SDS011;12114;53.404;-1.502;2023-08-12T14:50:29;2.58;;;0.70;;
23866;SDS011;12114;53.404;-1.502;2023-08-12T14:53:13;4.70;;;0.57;;
23866;SDS011;12114;53.404;-1.502;2023-08-12T14:55:57;2.55;;;0.60;;
23866;SDS011;12114;53.404;-1.502;2023-08-12T14:58:42;1.52;;;0.45;;
23866;SDS011;12114;53.404;-1.502;2023-08-12T15:01:26;1.75;;;0.45;;
23866;SDS011;12114;53.404;-1.502;2023-08-12T15:04:11;1.92;;;0.50;;
23866;SDS011;12114;53.404;-1.502;2023-08-12T15:06:55;0.90;;;0.60;;
23866;SDS011;12114;53.404;-1.502;2023-08-12T15:09:40;3.78;;;0.60;;
23866;SDS011;12114;53.404;-1.502;2023-08-12T15:12:24;1.40;;;0.60;;
23866;SDS011;12114;53.404;-1.502;2023-08-12T15:15:08;1.25;;;0.40;;
23866;SDS011;12114;53.404;-1.502;2023-08-12T15:17:53;2.35;;;0.50;;
23866;SDS011;12114;53.404;-1.502;2023-08-12T15:20:37;1.63;;;0.47;;
23866;SDS011;12114;53.404;-1.502;2023-08-12T15:23:21;1.40;;;0.50;;
23866;SDS011;12114;53.404;-1.502;2023-08-12T15:26:05;2.58;;;0.90;;
23866;SDS011;12114;53.404;-1.502;2023-08-12T15:28:49;3.60;;;1.13;;
23866;SDS011;12114;53.404;-1.502;2023-08-12T15:31:33;2.05;;;0.77;;
23866;SDS011;12114;53.404;-1.502;2023-08-12T15:34:16;4.63;;;0.70;;
23866;SDS011;12114;53.404;-1.502;2023-08-12T15:37:00;1.85;;;0.43;;
23866;SDS011;12114;53.404;-1.502;2023-08-12T15:39:44;2.55;;;0.63;;
23866;SDS011;12114;53.404;-1.502;2023-08-12T15:42:28;1.33;;;0.40;;
23866;SDS011;12114;53.404;-1.502;2023-08-12T15:45:12;1.88;;;0.45;;
23866;SDS011;12114;53.404;-1.502;2023-08-12T15:47:56;1.83;;;0.40;;
23866;SDS011;12114;53.404;-1.502;2023-08-12T15:50:42;1.70;;;0.52;;
23866;SDS011;12114;53.404;-1.502;2023-08-12T15:53:26;1.40;;;0.40;;
23866;SDS011;12114;53.404;-1.502;2023-08-12T15:56:10;1.52;;;0.35;;
23866;SDS011;12114;53.404;-1.502;2023-08-12T15:58:54;1.38;;;0.40;;
23866;SDS011;12114;53.404;-1.502;2023-08-12T16:01:38;2.28;;;0.40;;
23866;SDS011;12114;53.404;-1.502;2023-08-12T16:04:22;1.08;;;0.35;;
23866;SDS011;12114;53.404;-1.502;2023-08-12T16:07:06;2.20;;;0.40;;
23866;SDS011;12114;53.404;-1.502;2023-08-12T16:09:50;1.92;;;0.40;;
23866;SDS011;12114;53.404;-1.502;2023-08-12T16:12:33;2.90;;;0.40;;
23866;SDS011;12114;53.404;-1.502;2023-08-12T16:15:19;1.23;;;0.50;;